Time;durP1;ratioP1;P1;durP2;ratioP2;P2;SDS_P1;SDS_P2;PMS_P1;PMS_P2;Temp;Humidity;BMP_temperature;BMP_pressure;BME280_temperature;BME280_humidity;BME280_pressure;Samples;Min_cycle;Max_cycle;Signal;HPM_P1;HPM_P2
2022/03/23 00:01:24;;;;;;;12.03;9.87;;;;;;;;;;4502800;28;20441;-61
2022/03/23 00:03:37;;;;;;;11.63;9.10;;;;;;;;;;4502498;28;20046;-61
2022/03/23 00:05:48;;;;;;;13.13;9.07;;;;;;;;;;4517619;28;20056;-61
2022/03/23 00:08:00;;;;;;;11.63;9.10;;;;;;;;;;4501633;28;20364;-61
2022/03/23 00:10:11;;;;;;;;;;;;;;;;;;4502022;28;20050;-60
2022/03/23 00:12:21;;;;;;;12.60;10.35;;;;;;;;;;4501671;28;19936;-61
2022/03/23 00:14:31;;;;;;;12.00;9.73;;;;;;;;;;4517236;28;20036;-60
2022/03/23 00:16:42;;;;;;;11.77;9.50;;;;;;;;;;4500602;28;28342;-61
2022/03/23 00:18:53;;;;;;;11.90;8.97;;;;;;;;;;4502273;28;20042;-61
2022/03/23 00:21:03;;;;;;;12.80;9.90;;;;;;;;;;4502090;28;20152;-61
2022/03/23 00:23:14;;;;;;;12.70;10.00;;;;;;;;;;4503443;28;20347;-61
2022/03/23 00:25:25;;;;;;;14.25;10.48;;;;;;;;;;4503139;28;20062;-60
2022/03/23 00:27:35;;;;;;;12.93;10.00;;;;;;;;;;4501838;28;20096;-61
2022/03/23 00:29:46;;;;;;;12.13;9.40;;;;;;;;;;4502604;28;20045;-61
2022/03/23 00:31:56;;;;;;;11.87;9.93;;;;;;;;;;4503020;28;20034;-61
2022/03/23 00:34:07;;;;;;;12.90;10.13;;;;;;;;;;4503387;28;20042;-60
2022/03/23 00:36:18;;;;;;;13.17;10.17;;;;;;;;;;4503022;28;20112;-60
2022/03/23 00:38:29;;;;;;;13.27;9.82;;;;;;;;;;4501990;28;20053;-61
2022/03/23 00:40:40;;;;;;;13.25;9.30;;;;;;;;;;4502605;28;20042;-60
2022/03/23 00:42:51;;;;;;;11.57;9.13;;;;;;;;;;4502180;28;20029;-60
2022/03/23 00:45:04;;;;;;;11.93;9.10;;;;;;;;;;4502349;28;20038;-60
2022/03/23 00:47:14;;;;;;;12.57;9.80;;;;;;;;;;4501924;28;20034;-60
2022/03/23 00:49:24;;;;;;;12.10;9.67;;;;;;;;;;4502131;28;20486;-60
2022/03/23 00:51:35;;;;;;;12.77;9.83;;;;;;;;;;4503396;28;20039;-60
2022/03/23 00:53:46;;;;;;;11.57;9.63;;;;;;;;;;4502867;28;20030;-60
2022/03/23 00:55:57;;;;;;;11.90;9.80;;;;;;;;;;4502968;28;20755;-60
2022/03/23 00:58:08;;;;;;;12.30;9.60;;;;;;;;;;4484820;28;20073;-60
2022/03/23 01:00:20;;;;;;;11.57;9.05;;;;;;;;;;4502779;28;20026;-60
2022/03/23 01:02:30;;;;;;;11.15;9.38;;;;;;;;;;4502211;28;20774;-60
2022/03/23 01:04:41;;;;;;;11.20;9.23;;;;;;;;;;4501207;28;20040;-60
2022/03/23 01:06:54;;;;;;;13.53;9.67;;;;;;;;;;4487562;28;20034;-60
2022/03/23 01:09:05;;;;;;;12.45;9.68;;;;;;;;;;4501924;28;20054;-60
2022/03/23 01:11:15;;;;;;;14.90;9.83;;;;;;;;;;4502400;28;20038;-60
2022/03/23 01:13:26;;;;;;;11.77;10.00;;;;;;;;;;4501017;28;20057;-61
2022/03/23 01:15:36;;;;;;;12.40;9.57;;;;;;;;;;4500899;28;20125;-60
2022/03/23 01:17:49;;;;;;;11.63;9.45;;;;;;;;;;4487160;28;20038;-61
2022/03/23 01:19:59;;;;;;;12.00;9.55;;;;;;;;;;4500283;28;20034;-60
2022/03/23 01:22:10;;;;;;;12.68;9.57;;;;;;;;;;4501267;28;21245;-60
2022/03/23 01:24:21;;;;;;;11.70;9.63;;;;;;;;;;4502395;28;20033;-60
2022/03/23 01:26:32;;;;;;;11.87;9.20;;;;;;;;;;4501915;28;20030;-60
2022/03/23 01:28:43;;;;;;;12.77;9.70;;;;;;;;;;4487514;28;20046;-60
2022/03/23 01:30:53;;;;;;;12.40;9.70;;;;;;;;;;4499968;28;20046;-60
2022/03/23 01:33:04;;;;;;;12.60;9.70;;;;;;;;;;4495686;28;20042;-60
2022/03/23 01:35:14;;;;;;;12.30;9.63;;;;;;;;;;4502010;28;20033;-60
2022/03/23 01:37:24;;;;;;;13.20;10.23;;;;;;;;;;4500712;28;20101;-60
2022/03/23 01:39:36;;;;;;;;;;;;;;;;;;4500318;28;20041;-60
2022/03/23 01:41:47;;;;;;;11.20;8.93;;;;;;;;;;4505912;28;19917;-60
2022/03/23 01:43:57;;;;;;;12.67;9.67;;;;;;;;;;4504036;28;20509;-60
2022/03/23 01:46:07;;;;;;;13.10;10.07;;;;;;;;;;4500429;28;20034;-60
2022/03/23 01:48:18;;;;;;;11.83;9.27;;;;;;;;;;4493176;28;25768;-60
2022/03/23 01:50:29;;;;;;;12.67;9.87;;;;;;;;;;4504544;28;20053;-60
2022/03/23 01:52:40;;;;;;;12.47;8.97;;;;;;;;;;4505133;28;20034;-60
2022/03/23 01:54:51;;;;;;;12.50;10.35;;;;;;;;;;4505344;28;20037;-60
2022/03/23 01:57:03;;;;;;;13.00;10.48;;;;;;;;;;4489127;28;20552;-61
2022/03/23 01:59:14;;;;;;;;;;;;;;;;;;4503896;28;20049;-60
2022/03/23 02:01:24;;;;;;;12.27;9.25;;;;;;;;;;4505729;28;20252;-60
2022/03/23 02:03:36;;;;;;;12.68;9.82;;;;;;;;;;4506410;28;20037;-60
2022/03/23 02:05:47;;;;;;;12.17;9.90;;;;;;;;;;4504223;28;20045;-60
2022/03/23 02:07:58;;;;;;;11.73;8.85;;;;;;;;;;4519977;28;20041;-60
2022/03/23 02:10:09;;;;;;;11.70;9.73;;;;;;;;;;4497936;28;20088;-60
2022/03/23 02:12:32;;;;;;;11.55;9.75;;;;;;;;;;4503893;28;20317;-59
2022/03/23 02:14:43;;;;;;;12.90;10.03;;;;;;;;;;4504130;28;20046;-60
2022/03/23 02:16:53;;;;;;;13.03;9.90;;;;;;;;;;4504965;28;20037;-60
2022/03/23 02:19:04;;;;;;;12.03;9.60;;;;;;;;;;4499506;28;20093;-61
2022/03/23 02:21:15;;;;;;;13.87;9.57;;;;;;;;;;4486535;28;20617;-60
2022/03/23 02:23:26;;;;;;;;;;;;;;;;;;4505063;28;20277;-60
2022/03/23 02:25:37;;;;;;;11.48;9.20;;;;;;;;;;4505020;28;19964;-60
2022/03/23 02:27:48;;;;;;;12.27;9.70;;;;;;;;;;4504933;28;20034;-60
2022/03/23 02:29:59;;;;;;;12.20;9.02;;;;;;;;;;4504968;28;20037;-60
2022/03/23 02:32:10;;;;;;;11.97;9.33;;;;;;;;;;4502376;28;39890;-60
2022/03/23 02:34:20;;;;;;;12.27;9.97;;;;;;;;;;4497642;28;20077;-60
2022/03/23 02:36:31;;;;;;;11.73;9.23;;;;;;;;;;4505291;28;20277;-60
2022/03/23 02:38:42;;;;;;;11.50;8.43;;;;;;;;;;4504823;28;20246;-60
2022/03/23 02:40:53;;;;;;;11.80;8.70;;;;;;;;;;4504364;28;20241;-60
2022/03/23 02:43:03;;;;;;;11.23;8.73;;;;;;;;;;4504870;28;20521;-60
2022/03/23 02:45:14;;;;;;;11.10;8.60;;;;;;;;;;4503239;28;20042;-60
2022/03/23 02:47:24;;;;;;;11.30;8.57;;;;;;;;;;4504200;28;20052;-61
2022/03/23 02:49:35;;;;;;;10.63;8.23;;;;;;;;;;4503649;28;20054;-60
2022/03/23 02:51:46;;;;;;;10.57;8.50;;;;;;;;;;4498604;28;20038;-60
2022/03/23 03:01:53;;;;;;;11.85;8.55;;;;;;;;;;4505095;28;20345;-60
2022/03/23 03:04:04;;;;;;;11.35;8.93;;;;;;;;;;4504646;28;20026;-61
2022/03/23 03:06:14;;;;;;;11.70;8.97;;;;;;;;;;4504935;28;20033;-60
2022/03/23 03:10:53;;;;;;;10.57;8.35;;;;;;;;;;4504327;28;20841;-60
2022/03/23 03:13:04;;;;;;;10.73;8.33;;;;;;;;;;4504037;28;30919;-60
2022/03/23 03:15:15;;;;;;;11.33;8.50;;;;;;;;;;4503084;28;20046;-60
2022/03/23 03:17:26;;;;;;;11.10;8.47;;;;;;;;;;4504811;28;20137;-60
2022/03/23 03:19:36;;;;;;;10.43;8.00;;;;;;;;;;4503055;28;20048;-60
2022/03/23 03:21:47;;;;;;;10.53;8.00;;;;;;;;;;4503180;28;20052;-60
2022/03/23 03:23:57;;;;;;;11.40;8.60;;;;;;;;;;4503274;28;40068;-60
2022/03/23 03:26:08;;;;;;;10.70;7.70;;;;;;;;;;4504166;28;20030;-60
2022/03/23 03:28:19;;;;;;;10.35;7.72;;;;;;;;;;4504579;28;20076;-60
2022/03/23 03:30:29;;;;;;;11.53;8.43;;;;;;;;;;4503506;28;20037;-60
2022/03/23 03:36:06;;;;;;;10.68;8.68;;;;;;;;;;4500674;28;20065;-60
2022/03/23 03:38:16;;;;;;;10.93;7.80;;;;;;;;;;4502745;28;20617;-61
2022/03/23 03:40:27;;;;;;;10.00;7.97;;;;;;;;;;4502826;28;20034;-61
2022/03/23 03:42:37;;;;;;;10.83;8.20;;;;;;;;;;4503360;28;20109;-60
2022/03/23 03:44:50;;;;;;;12.43;8.43;;;;;;;;;;4502668;28;39018;-60
2022/03/23 03:47:01;;;;;;;11.18;8.55;;;;;;;;;;4503237;28;20049;-60
2022/03/23 03:49:11;;;;;;;11.17;8.23;;;;;;;;;;4502339;28;20061;-60
2022/03/23 03:51:22;;;;;;;10.67;8.67;;;;;;;;;;4502848;28;20077;-61
2022/03/23 03:53:33;;;;;;;10.73;8.00;;;;;;;;;;4503375;28;20038;-61
2022/03/23 03:55:44;;;;;;;10.40;7.95;;;;;;;;;;4518149;28;20855;-62
2022/03/23 03:57:54;;;;;;;12.13;8.43;;;;;;;;;;4501134;28;20037;-60
2022/03/23 04:00:05;;;;;;;11.10;8.47;;;;;;;;;;4501928;28;20037;-60
2022/03/23 04:02:22;;;;;;;10.00;7.60;;;;;;;;;;4499906;28;20932;-60
2022/03/23 04:04:33;;;;;;;10.90;7.80;;;;;;;;;;4496070;28;32524;-60
2022/03/23 04:06:43;;;;;;;10.03;7.57;;;;;;;;;;4503549;28;20085;-60
2022/03/23 04:08:54;;;;;;;10.57;7.37;;;;;;;;;;4502883;28;20537;-60
2022/03/23 04:11:05;;;;;;;9.38;7.40;;;;;;;;;;4503068;28;20072;-62
2022/03/23 04:13:15;;;;;;;9.77;7.33;;;;;;;;;;4501967;28;20041;-60
2022/03/23 04:15:26;;;;;;;9.93;7.33;;;;;;;;;;4503886;28;20057;-60
2022/03/23 04:17:36;;;;;;;10.27;7.47;;;;;;;;;;4501817;28;20776;-60
2022/03/23 04:19:47;;;;;;;9.90;7.53;;;;;;;;;;4503704;28;20122;-61
2022/03/23 04:21:57;;;;;;;9.77;7.53;;;;;;;;;;4503211;28;20037;-61
2022/03/23 04:24:08;;;;;;;10.20;7.00;;;;;;;;;;4503407;28;20075;-63
2022/03/23 04:26:18;;;;;;;10.50;7.87;;;;;;;;;;4503244;28;20241;-61
2022/03/23 04:28:29;;;;;;;9.77;7.70;;;;;;;;;;4503360;28;20030;-60
2022/03/23 04:30:41;;;;;;;9.50;7.27;;;;;;;;;;4502952;28;20045;-61
2022/03/23 04:32:52;;;;;;;9.88;7.72;;;;;;;;;;4504681;28;20037;-61
2022/03/23 04:35:02;;;;;;;9.63;7.37;;;;;;;;;;4502698;28;20030;-60
2022/03/23 04:37:13;;;;;;;8.60;6.33;;;;;;;;;;4502377;28;20034;-61
2022/03/23 04:39:23;;;;;;;9.13;6.97;;;;;;;;;;4501508;28;26095;-61
2022/03/23 04:41:33;;;;;;;9.67;7.37;;;;;;;;;;4502190;28;20044;-61
2022/03/23 04:43:44;;;;;;;10.47;7.80;;;;;;;;;;4502287;28;30608;-60
2022/03/23 04:45:54;;;;;;;9.70;7.50;;;;;;;;;;4502252;28;20531;-60
2022/03/23 04:48:05;;;;;;;10.17;8.03;;;;;;;;;;4502836;28;20560;-61
2022/03/23 04:50:16;;;;;;;10.43;7.88;;;;;;;;;;4502507;28;20093;-61
2022/03/23 04:52:29;;;;;;;10.27;7.90;;;;;;;;;;4503159;28;20407;-60
2022/03/23 04:54:40;;;;;;;10.52;7.72;;;;;;;;;;4502283;28;20084;-61
2022/03/23 04:56:50;;;;;;;10.37;8.00;;;;;;;;;;4502620;28;20911;-60
2022/03/23 04:59:01;;;;;;;9.70;7.67;;;;;;;;;;4502778;28;20176;-61
2022/03/23 05:01:11;;;;;;;10.40;8.03;;;;;;;;;;4505329;28;20043;-61
2022/03/23 05:03:24;;;;;;;10.63;7.73;;;;;;;;;;4502711;28;20062;-61
2022/03/23 05:05:35;;;;;;;10.40;7.82;;;;;;;;;;4501581;28;20033;-61
2022/03/23 05:07:46;;;;;;;10.07;7.40;;;;;;;;;;4502652;28;20038;-60
2022/03/23 05:09:56;;;;;;;11.07;7.87;;;;;;;;;;4502450;28;20077;-60
2022/03/23 05:12:07;;;;;;;9.33;7.57;;;;;;;;;;4502310;28;20045;-61
2022/03/23 05:14:17;;;;;;;10.40;7.88;;;;;;;;;;4500140;28;20037;-61
2022/03/23 05:16:29;;;;;;;10.13;7.70;;;;;;;;;;4502373;28;20080;-60
2022/03/23 05:18:41;;;;;;;10.30;7.47;;;;;;;;;;4502605;28;20045;-61
2022/03/23 05:20:51;;;;;;;9.80;7.82;;;;;;;;;;4502294;28;20037;-61
2022/03/23 05:23:02;;;;;;;10.43;8.33;;;;;;;;;;4501713;28;20030;-60
2022/03/23 05:25:13;;;;;;;10.30;8.20;;;;;;;;;;4501468;28;20030;-60
2022/03/23 05:27:23;;;;;;;11.07;8.13;;;;;;;;;;4502517;28;20038;-61
2022/03/23 05:29:35;;;;;;;12.33;8.57;;;;;;;;;;4500856;28;20034;-60
2022/03/23 05:31:46;;;;;;;10.23;8.18;;;;;;;;;;4500355;28;20044;-61
2022/03/23 05:33:56;;;;;;;11.30;8.40;;;;;;;;;;4502021;28;20041;-61
2022/03/23 05:36:06;;;;;;;11.67;8.77;;;;;;;;;;4501769;28;23780;-61
2022/03/23 05:38:17;;;;;;;10.73;7.90;;;;;;;;;;4500799;28;20042;-60
2022/03/23 05:40:28;;;;;;;10.37;8.07;;;;;;;;;;4500330;28;24440;-61
2022/03/23 05:42:39;;;;;;;10.87;8.27;;;;;;;;;;4500339;28;20598;-61
2022/03/23 05:44:50;;;;;;;10.05;8.07;;;;;;;;;;4502085;28;20046;-61
2022/03/23 05:47:00;;;;;;;9.20;7.60;;;;;;;;;;4501006;28;20433;-60
2022/03/23 05:49:11;;;;;;;10.90;8.43;;;;;;;;;;4499870;28;20049;-61
2022/03/23 05:51:23;;;;;;;10.57;7.77;;;;;;;;;;4500510;28;20038;-61
2022/03/23 05:53:36;;;;;;;10.40;7.90;;;;;;;;;;4500647;28;20166;-60
2022/03/23 05:55:46;;;;;;;10.35;7.88;;;;;;;;;;4500916;28;20040;-61
2022/03/23 05:57:57;;;;;;;10.33;8.03;;;;;;;;;;4500433;28;20044;-61
2022/03/23 06:00:08;;;;;;;9.27;7.10;;;;;;;;;;4500520;28;20065;-61
2022/03/23 06:02:25;;;;;;;10.75;7.35;;;;;;;;;;4500240;28;20038;-61
2022/03/23 06:04:36;;;;;;;10.63;7.90;;;;;;;;;;4499845;28;20117;-61
2022/03/23 06:06:46;;;;;;;9.63;7.63;;;;;;;;;;4501829;28;20545;-61
2022/03/23 06:08:56;;;;;;;10.03;7.73;;;;;;;;;;4501474;28;20038;-61
2022/03/23 06:11:07;;;;;;;8.70;6.87;;;;;;;;;;4501255;28;20082;-60
2022/03/23 06:13:18;;;;;;;11.37;7.83;;;;;;;;;;4499581;28;20818;-61
2022/03/23 06:15:28;;;;;;;10.27;7.67;;;;;;;;;;4501273;28;20042;-61
2022/03/23 06:17:39;;;;;;;9.57;7.57;;;;;;;;;;4501214;28;20038;-61
2022/03/23 06:19:49;;;;;;;10.87;8.50;;;;;;;;;;4483627;28;20073;-61
2022/03/23 06:22:00;;;;;;;9.47;7.43;;;;;;;;;;4498943;28;29583;-61
2022/03/23 06:24:10;;;;;;;10.23;7.93;;;;;;;;;;4502401;28;20037;-61
2022/03/23 06:26:21;;;;;;;11.60;8.70;;;;;;;;;;4504126;28;26064;-60
2022/03/23 06:28:32;;;;;;;11.77;8.63;;;;;;;;;;4473263;28;20039;-61
2022/03/23 06:30:42;;;;;;;11.05;8.13;;;;;;;;;;4504017;28;20045;-61
2022/03/23 06:32:52;;;;;;;11.13;8.17;;;;;;;;;;4503648;28;20791;-61
2022/03/23 06:35:03;;;;;;;10.77;7.90;;;;;;;;;;4503990;28;21056;-61
2022/03/23 06:37:14;;;;;;;9.80;7.67;;;;;;;;;;4497462;28;20042;-61
2022/03/23 06:39:24;;;;;;;10.20;7.97;;;;;;;;;;4503543;28;20034;-60
2022/03/23 06:41:35;;;;;;;11.60;8.00;;;;;;;;;;4503778;28;20478;-61
2022/03/23 06:43:45;;;;;;;10.70;7.87;;;;;;;;;;4495770;28;20034;-61
2022/03/23 06:45:55;;;;;;;12.10;8.27;;;;;;;;;;4504185;28;20037;-61
2022/03/23 06:48:07;;;;;;;11.67;8.87;;;;;;;;;;4503816;28;20030;-61
2022/03/23 06:50:17;;;;;;;11.85;8.82;;;;;;;;;;4504193;28;20143;-62
2022/03/23 06:52:28;;;;;;;10.13;8.07;;;;;;;;;;4503311;28;20141;-61
2022/03/23 06:54:38;;;;;;;11.77;8.83;;;;;;;;;;4503876;28;20036;-60
2022/03/23 06:56:51;;;;;;;10.40;8.17;;;;;;;;;;4502219;28;20605;-61
2022/03/23 06:59:03;;;;;;;10.88;8.18;;;;;;;;;;4504338;28;20030;-61
2022/03/23 07:01:14;;;;;;;10.82;7.47;;;;;;;;;;4503350;28;20089;-60
2022/03/23 07:03:24;;;;;;;10.57;8.43;;;;;;;;;;4504628;28;20026;-61
2022/03/23 07:05:36;;;;;;;10.77;8.27;;;;;;;;;;4503971;28;20471;-61
2022/03/23 07:10:16;;;;;;;10.60;7.95;;;;;;;;;;4503742;28;20042;-60
2022/03/23 07:12:26;;;;;;;10.33;7.67;;;;;;;;;;4503663;28;20036;-61
2022/03/23 07:14:39;;;;;;;11.53;8.73;;;;;;;;;;4503861;28;20044;-60
2022/03/23 07:16:49;;;;;;;10.70;8.23;;;;;;;;;;4487312;28;20034;-61
2022/03/23 07:18:59;;;;;;;11.47;8.70;;;;;;;;;;4503707;28;31836;-61
2022/03/23 07:21:11;;;;;;;11.03;8.37;;;;;;;;;;4503016;28;20038;-61
2022/03/23 07:23:21;;;;;;;10.93;8.35;;;;;;;;;;4503196;28;21133;-61
2022/03/23 07:25:31;;;;;;;10.23;7.77;;;;;;;;;;4502426;28;24987;-60
2022/03/23 07:27:42;;;;;;;10.53;8.03;;;;;;;;;;4502810;28;20121;-61
2022/03/23 07:29:52;;;;;;;12.67;9.50;;;;;;;;;;4503707;28;20069;-60
2022/03/23 07:32:03;;;;;;;12.33;9.20;;;;;;;;;;4503756;28;20548;-61
2022/03/23 07:34:18;;;;;;;12.98;9.27;;;;;;;;;;4502559;28;20037;-60
2022/03/23 07:36:29;;;;;;;10.45;8.32;;;;;;;;;;4502599;28;20525;-60
2022/03/23 07:38:40;;;;;;;11.37;8.30;;;;;;;;;;4503582;28;20096;-61
2022/03/23 07:40:50;;;;;;;10.82;8.07;;;;;;;;;;4503585;28;20034;-61
2022/03/23 07:43:01;;;;;;;11.40;8.47;;;;;;;;;;4503993;28;20507;-61
2022/03/23 07:45:12;;;;;;;11.00;8.60;;;;;;;;;;4503905;28;20052;-61
2022/03/23 07:47:22;;;;;;;11.53;8.97;;;;;;;;;;4503015;28;20323;-61
2022/03/23 07:49:33;;;;;;;11.30;8.67;;;;;;;;;;4501509;28;20026;-61
2022/03/23 07:51:43;;;;;;;11.77;9.23;;;;;;;;;;4503419;28;20048;-61
2022/03/23 07:53:54;;;;;;;11.80;9.00;;;;;;;;;;4504312;28;20060;-61
2022/03/23 07:56:05;;;;;;;12.63;9.30;;;;;;;;;;4503957;28;20034;-61
2022/03/23 07:58:15;;;;;;;12.37;9.67;;;;;;;;;;4503145;28;20512;-61
2022/03/23 08:00:26;;;;;;;12.03;9.37;;;;;;;;;;4502922;28;20041;-61
2022/03/23 08:02:37;;;;;;;12.73;9.80;;;;;;;;;;4503766;28;24331;-62
2022/03/23 08:04:47;;;;;;;11.65;9.10;;;;;;;;;;4503102;28;20034;-61
2022/03/23 08:07:00;;;;;;;12.83;10.23;;;;;;;;;;4502868;28;20034;-62
2022/03/23 08:09:11;;;;;;;13.32;9.90;;;;;;;;;;4503100;28;20153;-61
2022/03/23 08:11:21;;;;;;;12.90;10.43;;;;;;;;;;4501698;28;20042;-62
2022/03/23 08:13:32;;;;;;;12.67;9.87;;;;;;;;;;4503385;28;20125;-60
2022/03/23 08:15:42;;;;;;;13.53;10.33;;;;;;;;;;4502786;28;20087;-63
2022/03/23 08:17:52;;;;;;;12.93;10.17;;;;;;;;;;4502000;28;20073;-61
2022/03/23 08:22:32;;;;;;;13.68;9.93;;;;;;;;;;4500566;28;20112;-61
2022/03/23 08:24:43;;;;;;;12.30;9.70;;;;;;;;;;4502165;28;32356;-61
2022/03/23 08:26:53;;;;;;;12.83;10.30;;;;;;;;;;4502309;28;24996;-61
2022/03/23 08:29:04;;;;;;;13.03;10.23;;;;;;;;;;4503466;28;20045;-61
2022/03/23 08:31:14;;;;;;;11.50;9.00;;;;;;;;;;4502853;28;20441;-61
2022/03/23 08:33:26;;;;;;;13.60;10.73;;;;;;;;;;4501702;28;20042;-61
2022/03/23 08:35:37;;;;;;;13.82;10.52;;;;;;;;;;4502861;28;20119;-61
2022/03/23 08:37:48;;;;;;;13.90;10.77;;;;;;;;;;4503853;28;20116;-61
2022/03/23 08:39:59;;;;;;;14.27;9.87;;;;;;;;;;4502594;28;20042;-61
2022/03/23 08:42:09;;;;;;;13.30;9.88;;;;;;;;;;4501479;28;20137;-61
2022/03/23 08:44:20;;;;;;;12.93;10.03;;;;;;;;;;4502610;28;20038;-60
2022/03/23 08:46:30;;;;;;;12.90;9.63;;;;;;;;;;4502955;28;20064;-61
2022/03/23 08:48:41;;;;;;;11.87;8.97;;;;;;;;;;4502787;28;25776;-61
2022/03/23 08:50:52;;;;;;;12.97;10.00;;;;;;;;;;4502507;28;20050;-62
2022/03/23 08:53:03;;;;;;;13.00;9.80;;;;;;;;;;4502900;28;20034;-61
2022/03/23 08:55:19;;;;;;;12.50;10.07;;;;;;;;;;4501961;28;20283;-61
2022/03/23 08:57:29;;;;;;;12.38;9.82;;;;;;;;;;4502148;28;20648;-61
2022/03/23 08:59:40;;;;;;;11.87;9.27;;;;;;;;;;4501941;28;20069;-60
2022/03/23 09:01:51;;;;;;;12.03;9.37;;;;;;;;;;4502200;28;20041;-60
2022/03/23 09:04:04;;;;;;;13.80;10.07;;;;;;;;;;4501868;28;20088;-61
2022/03/23 09:06:15;;;;;;;12.95;9.82;;;;;;;;;;4503237;28;20025;-61
2022/03/23 09:08:25;;;;;;;13.00;9.83;;;;;;;;;;4501892;28;20406;-61
2022/03/23 09:10:36;;;;;;;12.47;9.30;;;;;;;;;;4501539;28;20468;-61
2022/03/23 09:12:46;;;;;;;11.80;9.00;;;;;;;;;;4503149;28;20030;-61
2022/03/23 09:14:57;;;;;;;13.07;9.87;;;;;;;;;;4503001;28;20478;-61
2022/03/23 09:17:07;;;;;;;11.50;8.97;;;;;;;;;;4503067;28;20037;-61
2022/03/23 09:19:20;;;;;;;14.27;9.70;;;;;;;;;;4501684;28;20065;-61
2022/03/23 09:21:30;;;;;;;12.88;10.10;;;;;;;;;;4502159;28;20605;-61
2022/03/23 09:23:41;;;;;;;12.70;9.40;;;;;;;;;;4502399;28;20066;-61
2022/03/23 09:25:52;;;;;;;12.20;9.02;;;;;;;;;;4502047;28;20609;-61
2022/03/23 09:28:03;;;;;;;12.55;9.38;;;;;;;;;;4501904;28;20037;-61
2022/03/23 09:30:14;;;;;;;12.63;9.83;;;;;;;;;;4499948;28;20037;-62
2022/03/23 09:32:24;;;;;;;12.47;9.90;;;;;;;;;;4501557;28;20104;-61
2022/03/23 09:34:35;;;;;;;12.43;9.30;;;;;;;;;;4500916;28;20026;-61
2022/03/23 09:39:14;;;;;;;13.07;9.00;;;;;;;;;;4502403;28;20153;-61
2022/03/23 09:41:25;;;;;;;12.63;9.13;;;;;;;;;;4502697;28;20092;-61
2022/03/23 09:43:36;;;;;;;13.88;9.68;;;;;;;;;;4484813;28;20088;-61
2022/03/23 09:45:46;;;;;;;11.87;8.70;;;;;;;;;;4501718;28;20091;-61
2022/03/23 09:47:58;;;;;;;11.93;9.10;;;;;;;;;;4501045;28;20505;-61
2022/03/23 09:50:09;;;;;;;12.90;8.90;;;;;;;;;;4500606;28;20600;-61
2022/03/23 09:52:19;;;;;;;12.85;9.13;;;;;;;;;;4502815;28;20036;-61
2022/03/23 09:54:30;;;;;;;14.10;9.67;;;;;;;;;;4502254;28;20041;-61
2022/03/23 09:56:40;;;;;;;12.03;9.17;;;;;;;;;;4501971;28;20117;-61
2022/03/23 09:58:51;;;;;;;14.43;9.63;;;;;;;;;;4498369;28;20585;-61
2022/03/23 10:01:03;;;;;;;13.53;9.70;;;;;;;;;;4505463;28;20137;-61
2022/03/23 10:03:15;;;;;;;12.85;9.55;;;;;;;;;;4505617;28;20120;-61
2022/03/23 10:05:43;;;;;;;13.50;9.27;;;;;;;;;;4504815;28;20044;-61
2022/03/23 10:08:14;;;;;;;12.98;9.63;;;;;;;;;;4505468;28;20136;-61
2022/03/23 10:11:02;;;;;;;13.07;9.45;;;;;;;;;;4484086;28;20057;-61
2022/03/23 10:13:31;;;;;;;12.93;9.13;;;;;;;;;;4503636;28;20084;-61
2022/03/23 10:16:19;;;;;;;12.95;9.40;;;;;;;;;;4505544;28;20045;-61
2022/03/23 10:18:51;;;;;;;11.77;8.80;;;;;;;;;;4505867;28;20096;-61
2022/03/23 10:21:02;;;;;;;12.65;9.35;;;;;;;;;;4503863;28;20077;-61
2022/03/23 10:23:12;;;;;;;12.75;9.50;;;;;;;;;;4504320;28;20149;-61
2022/03/23 10:25:27;;;;;;;12.73;9.77;;;;;;;;;;4504181;28;20141;-61
2022/03/23 10:27:38;;;;;;;12.27;9.57;;;;;;;;;;4498038;28;20034;-61
2022/03/23 10:29:52;;;;;;;14.85;10.05;;;;;;;;;;4504778;28;20702;-61
2022/03/23 10:32:06;;;;;;;12.98;9.07;;;;;;;;;;4482316;28;20034;-61
2022/03/23 10:34:16;;;;;;;12.07;9.20;;;;;;;;;;4504215;28;20037;-61
2022/03/23 10:36:27;;;;;;;12.27;9.50;;;;;;;;;;4503128;28;42165;-61
2022/03/23 10:38:39;;;;;;;12.23;9.63;;;;;;;;;;4504754;28;20030;-62
2022/03/23 10:40:51;;;;;;;14.70;9.48;;;;;;;;;;4504324;28;20992;-61
2022/03/23 10:43:02;;;;;;;12.93;9.27;;;;;;;;;;4504100;28;20034;-61
2022/03/23 10:45:18;;;;;;;12.63;9.47;;;;;;;;;;4504459;28;20042;-61
2022/03/23 10:47:31;;;;;;;13.27;9.95;;;;;;;;;;4504709;28;21046;-62
2022/03/23 10:49:41;;;;;;;11.23;8.88;;;;;;;;;;4504198;28;20052;-61
2022/03/23 10:51:52;;;;;;;13.00;9.20;;;;;;;;;;4504233;28;20045;-60
2022/03/23 10:54:20;;;;;;;12.53;9.43;;;;;;;;;;4503766;28;20504;-60
2022/03/23 10:56:31;;;;;;;13.27;9.65;;;;;;;;;;4504351;28;20034;-60
2022/03/23 10:58:42;;;;;;;14.02;10.00;;;;;;;;;;4503135;28;20188;-60
2022/03/23 11:00:58;;;;;;;13.27;10.27;;;;;;;;;;4502531;28;20140;-60
2022/03/23 11:03:10;;;;;;;12.88;10.10;;;;;;;;;;4502737;28;20034;-61
2022/03/23 11:05:43;;;;;;;12.67;10.10;;;;;;;;;;4503192;28;20046;-61
2022/03/23 11:08:05;;;;;;;13.43;10.13;;;;;;;;;;4504098;28;20042;-61
2022/03/23 11:18:04;;;;;;;13.32;9.93;;;;;;;;;;4503262;28;20046;-61
2022/03/23 11:20:16;;;;;;;13.18;9.65;;;;;;;;;;4504783;28;20813;-61
2022/03/23 11:22:27;;;;;;;12.48;9.55;;;;;;;;;;4503914;28;20060;-61
2022/03/23 11:24:40;;;;;;;13.43;10.27;;;;;;;;;;4504341;28;24021;-61
2022/03/23 11:26:52;;;;;;;13.43;10.35;;;;;;;;;;4504104;28;20061;-62
2022/03/23 11:29:03;;;;;;;12.82;10.05;;;;;;;;;;4501703;28;20033;-61
2022/03/23 11:31:16;;;;;;;14.48;9.50;;;;;;;;;;4489737;28;20050;-61
2022/03/23 11:33:27;;;;;;;12.48;9.85;;;;;;;;;;4492997;28;20061;-61
2022/03/23 11:35:48;;;;;;;13.73;9.90;;;;;;;;;;4504250;28;20038;-61
2022/03/23 11:37:59;;;;;;;12.90;9.77;;;;;;;;;;4504653;28;20060;-61
2022/03/23 11:40:11;;;;;;;12.77;10.37;;;;;;;;;;4486712;28;20080;-61
2022/03/23 11:42:22;;;;;;;11.40;9.10;;;;;;;;;;4502747;28;20041;-61
2022/03/23 11:44:36;;;;;;;12.70;9.93;;;;;;;;;;4503929;28;20088;-61
2022/03/23 11:46:47;;;;;;;12.27;9.13;;;;;;;;;;4488575;28;20593;-61
2022/03/23 11:49:35;;;;;;;12.80;9.73;;;;;;;;;;4503954;28;20069;-61
2022/03/23 11:52:00;;;;;;;12.45;9.45;;;;;;;;;;4503439;28;20038;-61
2022/03/23 11:55:37;;;;;;;11.88;9.18;;;;;;;;;;4504082;28;20029;-61
2022/03/23 11:57:04;;;;;;;11.30;8.65;;;;;;;;;;4501583;28;20822;-61
2022/03/23 11:59:38;;;;;;;11.90;8.80;;;;;;;;;;4503183;28;20022;-61
2022/03/23 12:01:50;;;;;;;12.00;9.18;;;;;;;;;;4503604;28;20188;-61
2022/03/23 12:04:02;;;;;;;12.27;8.43;;;;;;;;;;4504042;28;20168;-63
2022/03/23 12:06:16;;;;;;;;;;;;;;;;;;4503562;28;20788;-62
2022/03/23 12:08:46;;;;;;;11.60;8.90;;;;;;;;;;4503653;28;20044;-61
2022/03/23 12:10:57;;;;;;;10.90;7.85;;;;;;;;;;4503517;28;20051;-60
2022/03/23 12:13:17;;;;;;;10.90;7.70;;;;;;;;;;4503146;28;20034;-61
2022/03/23 12:15:28;;;;;;;10.77;8.15;;;;;;;;;;4484350;28;20764;-62
2022/03/23 12:17:57;;;;;;;11.25;8.07;;;;;;;;;;4504057;28;20037;-61
2022/03/23 12:20:10;;;;;;;11.90;8.27;;;;;;;;;;4498247;28;20041;-62
2022/03/23 12:22:42;;;;;;;10.50;7.53;;;;;;;;;;4503006;28;20044;-61
2022/03/23 12:24:58;;;;;;;10.70;7.65;;;;;;;;;;4503977;28;20037;-61
2022/03/23 12:27:24;;;;;;;11.05;8.27;;;;;;;;;;4503271;28;20057;-61
2022/03/23 12:29:38;;;;;;;10.30;7.28;;;;;;;;;;4503861;28;20185;-61
2022/03/23 12:31:49;;;;;;;10.32;6.22;;;;;;;;;;4504215;28;20083;-61
2022/03/23 12:34:19;;;;;;;8.63;5.88;;;;;;;;;;4502155;28;20093;-61
2022/03/23 12:36:56;;;;;;;9.85;7.18;;;;;;;;;;4502464;28;20030;-61
2022/03/23 12:39:07;;;;;;;10.25;7.55;;;;;;;;;;4502595;28;20164;-61
2022/03/23 12:41:17;;;;;;;9.73;6.77;;;;;;;;;;4502725;28;20044;-61
2022/03/23 12:43:43;;;;;;;10.83;7.30;;;;;;;;;;4504091;28;20129;-61
2022/03/23 12:45:54;;;;;;;9.45;6.93;;;;;;;;;;4502884;28;20038;-60
2022/03/23 12:57:49;;;;;;;10.85;7.93;;;;;;;;;;4501709;28;20042;-61
2022/03/23 12:58:13;;;;;;;11.18;7.93;;;;;;;;;;4501207;28;20026;-61
2022/03/23 13:00:26;;;;;;;11.75;7.90;;;;;;;;;;4501545;28;20029;-61
2022/03/23 13:02:37;;;;;;;10.75;7.80;;;;;;;;;;4486897;28;20605;-61
2022/03/23 13:04:47;;;;;;;10.17;7.60;;;;;;;;;;4502012;28;29851;-61
2022/03/23 13:06:58;;;;;;;10.83;7.47;;;;;;;;;;4484600;28;20047;-61
2022/03/23 13:09:10;;;;;;;10.47;7.57;;;;;;;;;;4502785;28;20176;-61
2022/03/23 13:11:30;;;;;;;11.57;7.85;;;;;;;;;;4500412;28;20193;-61
2022/03/23 13:13:41;;;;;;;11.30;7.85;;;;;;;;;;4502532;28;20034;-60
2022/03/23 13:15:52;;;;;;;11.05;8.00;;;;;;;;;;4500799;28;20038;-60
2022/03/23 13:18:03;;;;;;;11.07;7.75;;;;;;;;;;4501769;28;20674;-60
2022/03/23 13:20:16;;;;;;;9.80;7.63;;;;;;;;;;4502756;28;20107;-61
2022/03/23 13:22:34;;;;;;;11.32;7.65;;;;;;;;;;4502055;28;20029;-61
2022/03/23 13:24:44;;;;;;;10.68;7.95;;;;;;;;;;4502560;28;20099;-61
2022/03/23 13:26:56;;;;;;;11.73;7.80;;;;;;;;;;4502196;28;20073;-61
2022/03/23 13:29:08;;;;;;;10.52;7.35;;;;;;;;;;4502716;28;20029;-61
2022/03/23 13:31:31;;;;;;;11.32;7.47;;;;;;;;;;4501881;28;20041;-61
2022/03/23 13:33:47;;;;;;;10.43;7.65;;;;;;;;;;4500479;28;20038;-61
2022/03/23 13:36:00;;;;;;;10.80;8.02;;;;;;;;;;4501725;28;20125;-61
2022/03/23 13:38:11;;;;;;;11.63;8.32;;;;;;;;;;4501648;28;20104;-61
2022/03/23 13:43:19;;;;;;;10.10;7.53;;;;;;;;;;4501931;28;20033;-61